sensor_id;sensor_type;location;lat;lon;timestamp;P1;durP1;ratioP1;P2;durP2;ratioP2
82292;SDS011;71892;14.836;105.234;2024-03-07T00:00:15;77.15;;;47.30;;
82292;SDS011;71892;14.836;105.234;2024-03-07T00:02:45;71.68;;;49.60;;
82292;SDS011;71892;14.836;105.234;2024-03-07T00:05:19;84.72;;;50.92;;
82292;SDS011;71892;14.836;105.234;2024-03-07T00:07:47;75.25;;;53.80;;
82292;SDS011;71892;14.836;105.234;2024-03-07T00:10:13;84.85;;;53.35;;
82292;SDS011;71892;14.836;105.234;2024-03-07T00:12:41;90.05;;;58.13;;
82292;SDS011;71892;14.836;105.234;2024-03-07T00:15:07;84.00;;;54.95;;
82292;SDS011;71892;14.836;105.234;2024-03-07T00:17:38;91.55;;;58.92;;
82292;SDS011;71892;14.836;105.234;2024-03-07T00:20:05;82.82;;;57.47;;
82292;SDS011;71892;14.836;105.234;2024-03-07T00:22:37;82.40;;;56.88;;
82292;SDS011;71892;14.836;105.234;2024-03-07T00:25:04;88.97;;;59.47;;
82292;SDS011;71892;14.836;105.234;2024-03-07T00:27:32;88.53;;;60.17;;
82292;SDS011;71892;14.836;105.234;2024-03-07T00:29:59;84.82;;;61.13;;
82292;SDS011;71892;14.836;105.234;2024-03-07T00:32:25;88.82;;;60.08;;
82292;SDS011;71892;14.836;105.234;2024-03-07T00:34:55;89.90;;;59.60;;
82292;SDS011;71892;14.836;105.234;2024-03-07T00:37:25;79.55;;;56.40;;
82292;SDS011;71892;14.836;105.234;2024-03-07T00:39:51;77.07;;;55.90;;
82292;SDS011;71892;14.836;105.234;2024-03-07T00:42:18;80.68;;;53.30;;
82292;SDS011;71892;14.836;105.234;2024-03-07T00:44:44;77.95;;;57.00;;
82292;SDS011;71892;14.836;105.234;2024-03-07T00:47:10;89.10;;;56.10;;
82292;SDS011;71892;14.836;105.234;2024-03-07T00:49:37;77.63;;;55.75;;
82292;SDS011;71892;14.836;105.234;2024-03-07T00:52:05;77.45;;;57.03;;
82292;SDS011;71892;14.836;105.234;2024-03-07T00:54:32;77.60;;;55.65;;
82292;SDS011;71892;14.836;105.234;2024-03-07T00:56:58;79.43;;;50.28;;
82292;SDS011;71892;14.836;105.234;2024-03-07T00:59:25;75.22;;;51.15;;
82292;SDS011;71892;14.836;105.234;2024-03-07T01:01:51;71.53;;;49.53;;
82292;SDS011;71892;14.836;105.234;2024-03-07T01:04:18;76.18;;;48.80;;
82292;SDS011;71892;14.836;105.234;2024-03-07T01:06:44;72.03;;;49.40;;
82292;SDS011;71892;14.836;105.234;2024-03-07T01:09:11;72.35;;;46.75;;
82292;SDS011;71892;14.836;105.234;2024-03-07T01:11:42;63.80;;;46.38;;
82292;SDS011;71892;14.836;105.234;2024-03-07T01:14:13;67.68;;;47.95;;
82292;SDS011;71892;14.836;105.234;2024-03-07T01:16:40;69.45;;;46.33;;
82292;SDS011;71892;14.836;105.234;2024-03-07T01:19:09;64.82;;;48.67;;
82292;SDS011;71892;14.836;105.234;2024-03-07T01:21:35;67.78;;;49.28;;
82292;SDS011;71892;14.836;105.234;2024-03-07T01:24:02;66.40;;;44.95;;
82292;SDS011;71892;14.836;105.234;2024-03-07T01:26:29;67.53;;;43.95;;
82292;SDS011;71892;14.836;105.234;2024-03-07T01:28:56;69.28;;;45.40;;
82292;SDS011;71892;14.836;105.234;2024-03-07T01:31:23;62.53;;;43.60;;
82292;SDS011;71892;14.836;105.234;2024-03-07T01:33:50;64.97;;;44.65;;
82292;SDS011;71892;14.836;105.234;2024-03-07T01:36:18;60.78;;;43.90;;
82292;SDS011;71892;14.836;105.234;2024-03-07T01:38:48;61.80;;;43.78;;
82292;SDS011;71892;14.836;105.234;2024-03-07T01:41:14;62.90;;;43.92;;
82292;SDS011;71892;14.836;105.234;2024-03-07T01:43:41;64.40;;;44.50;;
82292;SDS011;71892;14.836;105.234;2024-03-07T01:46:08;60.30;;;42.83;;
82292;SDS011;71892;14.836;105.234;2024-03-07T01:48:36;63.22;;;45.53;;
82292;SDS011;71892;14.836;105.234;2024-03-07T01:51:05;66.57;;;42.78;;
82292;SDS011;71892;14.836;105.234;2024-03-07T01:53:32;58.47;;;42.90;;
82292;SDS011;71892;14.836;105.234;2024-03-07T01:55:59;61.67;;;41.65;;
82292;SDS011;71892;14.836;105.234;2024-03-07T01:58:27;60.92;;;41.40;;
82292;SDS011;71892;14.836;105.234;2024-03-07T02:00:57;55.70;;;39.33;;
82292;SDS011;71892;14.836;105.234;2024-03-07T02:03:25;54.33;;;41.45;;
82292;SDS011;71892;14.836;105.234;2024-03-07T02:05:51;49.78;;;40.88;;
82292;SDS011;71892;14.836;105.234;2024-03-07T02:08:18;56.03;;;41.33;;
82292;SDS011;71892;14.836;105.234;2024-03-07T02:10:45;53.80;;;40.90;;
82292;SDS011;71892;14.836;105.234;2024-03-07T02:13:11;58.60;;;41.28;;
82292;SDS011;71892;14.836;105.234;2024-03-07T02:15:38;60.90;;;44.17;;
82292;SDS011;71892;14.836;105.234;2024-03-07T02:18:04;59.17;;;42.35;;
82292;SDS011;71892;14.836;105.234;2024-03-07T02:20:31;58.58;;;43.95;;
82292;SDS011;71892;14.836;105.234;2024-03-07T02:22:58;54.72;;;43.45;;
82292;SDS011;71892;14.836;105.234;2024-03-07T02:25:24;58.42;;;41.55;;
82292;SDS011;71892;14.836;105.234;2024-03-07T02:27:50;59.03;;;43.03;;
82292;SDS011;71892;14.836;105.234;2024-03-07T02:30:17;60.28;;;44.20;;
82292;SDS011;71892;14.836;105.234;2024-03-07T02:32:45;59.05;;;44.17;;
82292;SDS011;71892;14.836;105.234;2024-03-07T02:35:17;58.45;;;41.58;;
82292;SDS011;71892;14.836;105.234;2024-03-07T02:37:44;60.60;;;41.67;;
82292;SDS011;71892;14.836;105.234;2024-03-07T02:40:11;55.28;;;41.67;;
82292;SDS011;71892;14.836;105.234;2024-03-07T02:42:38;52.35;;;38.63;;
82292;SDS011;71892;14.836;105.234;2024-03-07T02:45:05;51.35;;;39.50;;
82292;SDS011;71892;14.836;105.234;2024-03-07T02:47:32;53.25;;;39.30;;
82292;SDS011;71892;14.836;105.234;2024-03-07T02:50:01;52.17;;;38.50;;
82292;SDS011;71892;14.836;105.234;2024-03-07T02:52:28;51.80;;;39.95;;
82292;SDS011;71892;14.836;105.234;2024-03-07T02:54:54;51.85;;;37.42;;
82292;SDS011;71892;14.836;105.234;2024-03-07T02:57:21;49.38;;;37.70;;
82292;SDS011;71892;14.836;105.234;2024-03-07T02:59:47;52.45;;;37.17;;
82292;SDS011;71892;14.836;105.234;2024-03-07T03:02:14;49.75;;;34.90;;
82292;SDS011;71892;14.836;105.234;2024-03-07T03:04:43;46.65;;;35.17;;
82292;SDS011;71892;14.836;105.234;2024-03-07T03:07:10;46.75;;;35.88;;
82292;SDS011;71892;14.836;105.234;2024-03-07T03:09:36;44.03;;;34.47;;
82292;SDS011;71892;14.836;105.234;2024-03-07T03:12:08;46.60;;;36.05;;
82292;SDS011;71892;14.836;105.234;2024-03-07T03:14:35;46.40;;;33.17;;
82292;SDS011;71892;14.836;105.234;2024-03-07T03:17:02;44.78;;;36.20;;
82292;SDS011;71892;14.836;105.234;2024-03-07T03:19:29;52.25;;;32.90;;
82292;SDS011;71892;14.836;105.234;2024-03-07T03:21:56;46.95;;;34.33;;
82292;SDS011;71892;14.836;105.234;2024-03-07T03:24:23;44.00;;;33.42;;
82292;SDS011;71892;14.836;105.234;2024-03-07T03:26:49;49.75;;;34.35;;
82292;SDS011;71892;14.836;105.234;2024-03-07T03:29:16;51.65;;;35.03;;
82292;SDS011;71892;14.836;105.234;2024-03-07T03:31:43;41.45;;;32.17;;
82292;SDS011;71892;14.836;105.234;2024-03-07T03:34:10;48.80;;;34.13;;
82292;SDS011;71892;14.836;105.234;2024-03-07T03:36:36;45.63;;;32.22;;
82292;SDS011;71892;14.836;105.234;2024-03-07T03:39:04;46.28;;;32.15;;
82292;SDS011;71892;14.836;105.234;2024-03-07T03:41:32;41.83;;;31.17;;
82292;SDS011;71892;14.836;105.234;2024-03-07T03:43:58;53.95;;;35.65;;
82292;SDS011;71892;14.836;105.234;2024-03-07T03:46:25;41.15;;;31.20;;
82292;SDS011;71892;14.836;105.234;2024-03-07T03:48:52;42.00;;;30.27;;
82292;SDS011;71892;14.836;105.234;2024-03-07T03:51:18;42.25;;;30.90;;
82292;SDS011;71892;14.836;105.234;2024-03-07T03:53:47;37.95;;;30.35;;
82292;SDS011;71892;14.836;105.234;2024-03-07T03:56:14;38.85;;;29.73;;
82292;SDS011;71892;14.836;105.234;2024-03-07T03:58:41;40.33;;;28.52;;
82292;SDS011;71892;14.836;105.234;2024-03-07T04:01:08;41.22;;;28.60;;
82292;SDS011;71892;14.836;105.234;2024-03-07T04:03:38;47.78;;;33.28;;
82292;SDS011;71892;14.836;105.234;2024-03-07T04:06:05;41.70;;;32.28;;
82292;SDS011;71892;14.836;105.234;2024-03-07T04:08:32;49.80;;;32.50;;
82292;SDS011;71892;14.836;105.234;2024-03-07T04:11:00;42.85;;;29.88;;
82292;SDS011;71892;14.836;105.234;2024-03-07T04:13:26;41.90;;;29.33;;
82292;SDS011;71892;14.836;105.234;2024-03-07T04:15:53;33.05;;;27.50;;
82292;SDS011;71892;14.836;105.234;2024-03-07T04:18:20;35.20;;;27.33;;
82292;SDS011;71892;14.836;105.234;2024-03-07T04:20:46;42.20;;;26.63;;
82292;SDS011;71892;14.836;105.234;2024-03-07T04:23:13;32.97;;;28.45;;
82292;SDS011;71892;14.836;105.234;2024-03-07T04:25:40;39.92;;;28.60;;
82292;SDS011;71892;14.836;105.234;2024-03-07T04:28:07;41.10;;;28.75;;
82292;SDS011;71892;14.836;105.234;2024-03-07T04:30:33;39.47;;;29.25;;
82292;SDS011;71892;14.836;105.234;2024-03-07T04:33:03;37.50;;;29.48;;
82292;SDS011;71892;14.836;105.234;2024-03-07T04:35:31;40.53;;;30.48;;
82292;SDS011;71892;14.836;105.234;2024-03-07T04:37:57;36.22;;;30.25;;
82292;SDS011;71892;14.836;105.234;2024-03-07T04:40:24;39.30;;;29.10;;
82292;SDS011;71892;14.836;105.234;2024-03-07T04:42:50;50.33;;;32.97;;
82292;SDS011;71892;14.836;105.234;2024-03-07T04:45:17;53.35;;;30.60;;
82292;SDS011;71892;14.836;105.234;2024-03-07T04:47:44;46.85;;;31.85;;
82292;SDS011;71892;14.836;105.234;2024-03-07T04:50:16;39.17;;;29.13;;
82292;SDS011;71892;14.836;105.234;2024-03-07T04:52:45;43.17;;;30.77;;
82292;SDS011;71892;14.836;105.234;2024-03-07T04:55:11;42.78;;;30.83;;
82292;SDS011;71892;14.836;105.234;2024-03-07T04:57:38;38.58;;;31.45;;
82292;SDS011;71892;14.836;105.234;2024-03-07T05:00:10;41.72;;;30.13;;
82292;SDS011;71892;14.836;105.234;2024-03-07T05:02:41;43.72;;;29.83;;
82292;SDS011;71892;14.836;105.234;2024-03-07T05:05:08;38.55;;;28.92;;
82292;SDS011;71892;14.836;105.234;2024-03-07T05:07:35;38.90;;;27.60;;
82292;SDS011;71892;14.836;105.234;2024-03-07T05:10:02;37.50;;;28.58;;
82292;SDS011;71892;14.836;105.234;2024-03-07T05:12:30;37.25;;;27.42;;
82292;SDS011;71892;14.836;105.234;2024-03-07T05:14:56;33.83;;;26.02;;
82292;SDS011;71892;14.836;105.234;2024-03-07T05:17:22;39.70;;;25.52;;
82292;SDS011;71892;14.836;105.234;2024-03-07T05:19:49;42.75;;;27.00;;
82292;SDS011;71892;14.836;105.234;2024-03-07T05:22:15;41.75;;;25.92;;
82292;SDS011;71892;14.836;105.234;2024-03-07T05:24:43;34.65;;;27.85;;
82292;SDS011;71892;14.836;105.234;2024-03-07T05:27:10;33.10;;;25.10;;
82292;SDS011;71892;14.836;105.234;2024-03-07T05:29:37;38.55;;;25.42;;
82292;SDS011;71892;14.836;105.234;2024-03-07T05:32:23;35.47;;;27.27;;
82292;SDS011;71892;14.836;105.234;2024-03-07T05:34:51;32.75;;;25.50;;
82292;SDS011;71892;14.836;105.234;2024-03-07T05:37:21;36.13;;;27.95;;
82292;SDS011;71892;14.836;105.234;2024-03-07T05:39:49;33.15;;;25.38;;
82292;SDS011;71892;14.836;105.234;2024-03-07T05:42:19;29.23;;;24.40;;
82292;SDS011;71892;14.836;105.234;2024-03-07T05:44:45;34.45;;;23.70;;
82292;SDS011;71892;14.836;105.234;2024-03-07T05:47:12;34.47;;;23.42;;
82292;SDS011;71892;14.836;105.234;2024-03-07T05:49:39;28.42;;;21.02;;
82292;SDS011;71892;14.836;105.234;2024-03-07T05:52:05;31.05;;;22.95;;
82292;SDS011;71892;14.836;105.234;2024-03-07T05:54:32;31.58;;;22.13;;
82292;SDS011;71892;14.836;105.234;2024-03-07T05:56:59;26.25;;;19.90;;
82292;SDS011;71892;14.836;105.234;2024-03-07T05:59:26;32.17;;;19.50;;
82292;SDS011;71892;14.836;105.234;2024-03-07T06:01:58;27.90;;;22.33;;
82292;SDS011;71892;14.836;105.234;2024-03-07T06:04:25;28.70;;;23.40;;
82292;SDS011;71892;14.836;105.234;2024-03-07T06:06:52;26.75;;;21.98;;
82292;SDS011;71892;14.836;105.234;2024-03-07T06:09:19;31.38;;;22.58;;
82292;SDS011;71892;14.836;105.234;2024-03-07T06:11:46;28.77;;;20.02;;
82292;SDS011;71892;14.836;105.234;2024-03-07T06:14:13;27.75;;;20.33;;
82292;SDS011;71892;14.836;105.234;2024-03-07T06:16:41;27.55;;;19.48;;
82292;SDS011;71892;14.836;105.234;2024-03-07T06:19:08;26.67;;;20.77;;
82292;SDS011;71892;14.836;105.234;2024-03-07T06:21:35;28.02;;;20.15;;
82292;SDS011;71892;14.836;105.234;2024-03-07T06:24:04;24.08;;;19.48;;
82292;SDS011;71892;14.836;105.234;2024-03-07T06:26:33;35.75;;;21.58;;
82292;SDS011;71892;14.836;105.234;2024-03-07T06:29:07;26.75;;;20.23;;
82292;SDS011;71892;14.836;105.234;2024-03-07T06:31:37;29.42;;;18.15;;
82292;SDS011;71892;14.836;105.234;2024-03-07T06:34:03;25.55;;;19.83;;
82292;SDS011;71892;14.836;105.234;2024-03-07T06:36:30;27.58;;;18.80;;
82292;SDS011;71892;14.836;105.234;2024-03-07T06:38:56;24.85;;;19.65;;
82292;SDS011;71892;14.836;105.234;2024-03-07T06:41:22;28.60;;;18.95;;
82292;SDS011;71892;14.836;105.234;2024-03-07T06:43:50;26.77;;;19.20;;
82292;SDS011;71892;14.836;105.234;2024-03-07T06:46:18;30.05;;;20.70;;
82292;SDS011;71892;14.836;105.234;2024-03-07T06:48:45;27.35;;;19.27;;
82292;SDS011;71892;14.836;105.234;2024-03-07T06:51:12;27.23;;;19.17;;
82292;SDS011;71892;14.836;105.234;2024-03-07T06:53:38;32.05;;;19.10;;
82292;SDS011;71892;14.836;105.234;2024-03-07T06:56:05;23.52;;;18.63;;
82292;SDS011;71892;14.836;105.234;2024-03-07T06:58:32;28.02;;;18.23;;
82292;SDS011;71892;14.836;105.234;2024-03-07T07:00:58;26.17;;;18.40;;
82292;SDS011;71892;14.836;105.234;2024-03-07T07:03:29;26.10;;;19.05;;
82292;SDS011;71892;14.836;105.234;2024-03-07T07:05:55;29.63;;;19.80;;
82292;SDS011;71892;14.836;105.234;2024-03-07T07:08:25;32.72;;;19.63;;
82292;SDS011;71892;14.836;105.234;2024-03-07T07:10:52;27.83;;;18.40;;
82292;SDS011;71892;14.836;105.234;2024-03-07T07:13:19;32.60;;;19.65;;
82292;SDS011;71892;14.836;105.234;2024-03-07T07:15:46;29.38;;;19.23;;
82292;SDS011;71892;14.836;105.234;2024-03-07T07:18:12;29.27;;;20.10;;
82292;SDS011;71892;14.836;105.234;2024-03-07T07:20:39;27.63;;;19.98;;
82292;SDS011;71892;14.836;105.234;2024-03-07T07:23:08;26.90;;;19.63;;
82292;SDS011;71892;14.836;105.234;2024-03-07T07:25:35;30.05;;;19.13;;
82292;SDS011;71892;14.836;105.234;2024-03-07T07:28:02;26.35;;;18.52;;
82292;SDS011;71892;14.836;105.234;2024-03-07T07:30:33;29.35;;;19.60;;
82292;SDS011;71892;14.836;105.234;2024-03-07T07:32:59;37.50;;;19.88;;
82292;SDS011;71892;14.836;105.234;2024-03-07T07:35:26;26.85;;;18.58;;
82292;SDS011;71892;14.836;105.234;2024-03-07T07:37:52;32.80;;;18.65;;
82292;SDS011;71892;14.836;105.234;2024-03-07T07:40:21;27.60;;;19.33;;
82292;SDS011;71892;14.836;105.234;2024-03-07T07:42:51;25.33;;;19.50;;
82292;SDS011;71892;14.836;105.234;2024-03-07T07:45:22;24.48;;;17.95;;
82292;SDS011;71892;14.836;105.234;2024-03-07T07:47:50;28.02;;;18.95;;
82292;SDS011;71892;14.836;105.234;2024-03-07T07:50:19;26.63;;;20.08;;
82292;SDS011;71892;14.836;105.234;2024-03-07T07:55:15;29.52;;;19.33;;
82292;SDS011;71892;14.836;105.234;2024-03-07T07:57:49;30.50;;;19.73;;
82292;SDS011;71892;14.836;105.234;2024-03-07T08:00:20;29.23;;;20.80;;
82292;SDS011;71892;14.836;105.234;2024-03-07T08:02:55;27.15;;;20.40;;
82292;SDS011;71892;14.836;105.234;2024-03-07T08:05:29;27.35;;;19.50;;
82292;SDS011;71892;14.836;105.234;2024-03-07T08:07:58;32.38;;;20.75;;
82292;SDS011;71892;14.836;105.234;2024-03-07T08:10:37;26.80;;;20.80;;
82292;SDS011;71892;14.836;105.234;2024-03-07T08:13:04;33.90;;;20.40;;
82292;SDS011;71892;14.836;105.234;2024-03-07T08:15:35;28.85;;;21.48;;
82292;SDS011;71892;14.836;105.234;2024-03-07T08:18:02;28.60;;;20.40;;
82292;SDS011;71892;14.836;105.234;2024-03-07T08:20:34;29.88;;;20.58;;
82292;SDS011;71892;14.836;105.234;2024-03-07T08:23:05;26.85;;;20.10;;
82292;SDS011;71892;14.836;105.234;2024-03-07T08:25:32;36.83;;;21.55;;
82292;SDS011;71892;14.836;105.234;2024-03-07T08:28:01;31.50;;;19.90;;
82292;SDS011;71892;14.836;105.234;2024-03-07T08:30:28;26.05;;;19.83;;
82292;SDS011;71892;14.836;105.234;2024-03-07T08:32:56;30.60;;;21.23;;
82292;SDS011;71892;14.836;105.234;2024-03-07T08:35:27;27.33;;;20.98;;
82292;SDS011;71892;14.836;105.234;2024-03-07T08:37:54;27.17;;;19.60;;
82292;SDS011;71892;14.836;105.234;2024-03-07T08:40:26;31.13;;;19.38;;
82292;SDS011;71892;14.836;105.234;2024-03-07T08:45:24;23.05;;;19.17;;
82292;SDS011;71892;14.836;105.234;2024-03-07T08:47:55;29.27;;;19.67;;
82292;SDS011;71892;14.836;105.234;2024-03-07T08:50:23;28.55;;;20.65;;
82292;SDS011;71892;14.836;105.234;2024-03-07T08:52:51;28.30;;;19.88;;
82292;SDS011;71892;14.836;105.234;2024-03-07T08:55:19;33.60;;;19.70;;
82292;SDS011;71892;14.836;105.234;2024-03-07T08:57:46;28.00;;;19.00;;
82292;SDS011;71892;14.836;105.234;2024-03-07T09:00:15;23.92;;;20.00;;
82292;SDS011;71892;14.836;105.234;2024-03-07T09:02:55;100.72;;;26.50;;
82292;SDS011;71892;14.836;105.234;2024-03-07T09:05:29;29.42;;;21.02;;
82292;SDS011;71892;14.836;105.234;2024-03-07T09:07:59;24.30;;;18.17;;
82292;SDS011;71892;14.836;105.234;2024-03-07T09:10:26;25.08;;;19.77;;
82292;SDS011;71892;14.836;105.234;2024-03-07T09:12:57;29.13;;;21.13;;
82292;SDS011;71892;14.836;105.234;2024-03-07T09:15:24;26.33;;;20.48;;
82292;SDS011;71892;14.836;105.234;2024-03-07T09:17:53;25.65;;;20.38;;
82292;SDS011;71892;14.836;105.234;2024-03-07T09:20:20;27.63;;;20.58;;
82292;SDS011;71892;14.836;105.234;2024-03-07T09:22:48;28.40;;;19.60;;
82292;SDS011;71892;14.836;105.234;2024-03-07T09:25:16;27.88;;;20.40;;
82292;SDS011;71892;14.836;105.234;2024-03-07T09:27:44;24.65;;;18.73;;
82292;SDS011;71892;14.836;105.234;2024-03-07T09:30:10;25.00;;;19.23;;
82292;SDS011;71892;14.836;105.234;2024-03-07T09:32:38;30.85;;;20.48;;
82292;SDS011;71892;14.836;105.234;2024-03-07T09:35:09;28.45;;;21.48;;
82292;SDS011;71892;14.836;105.234;2024-03-07T09:37:42;28.55;;;21.35;;
82292;SDS011;71892;14.836;105.234;2024-03-07T09:40:09;26.30;;;21.20;;
82292;SDS011;71892;14.836;105.234;2024-03-07T09:42:46;29.98;;;20.20;;
82292;SDS011;71892;14.836;105.234;2024-03-07T09:45:18;33.00;;;22.08;;
82292;SDS011;71892;14.836;105.234;2024-03-07T09:47:48;26.63;;;21.27;;
82292;SDS011;71892;14.836;105.234;2024-03-07T09:50:17;26.90;;;20.50;;
82292;SDS011;71892;14.836;105.234;2024-03-07T09:52:47;29.08;;;20.50;;
82292;SDS011;71892;14.836;105.234;2024-03-07T09:57:42;31.27;;;19.85;;
82292;SDS011;71892;14.836;105.234;2024-03-07T10:02:53;42.00;;;21.70;;
82292;SDS011;71892;14.836;105.234;2024-03-07T10:05:22;33.50;;;20.80;;
82292;SDS011;71892;14.836;105.234;2024-03-07T10:07:52;43.78;;;21.13;;
82292;SDS011;71892;14.836;105.234;2024-03-07T10:10:19;26.35;;;21.25;;
82292;SDS011;71892;14.836;105.234;2024-03-07T10:12:47;29.33;;;21.10;;
82292;SDS011;71892;14.836;105.234;2024-03-07T10:17:43;26.85;;;21.30;;
82292;SDS011;71892;14.836;105.234;2024-03-07T10:20:14;33.63;;;22.33;;
82292;SDS011;71892;14.836;105.234;2024-03-07T10:22:47;29.30;;;21.83;;
82292;SDS011;71892;14.836;105.234;2024-03-07T10:25:16;47.20;;;22.75;;
82292;SDS011;71892;14.836;105.234;2024-03-07T10:27:45;26.23;;;21.83;;
82292;SDS011;71892;14.836;105.234;2024-03-07T10:30:16;32.85;;;22.45;;
82292;SDS011;71892;14.836;105.234;2024-03-07T10:32:58;35.45;;;23.88;;
82292;SDS011;71892;14.836;105.234;2024-03-07T10:35:26;28.73;;;23.30;;
82292;SDS011;71892;14.836;105.234;2024-03-07T10:37:54;30.95;;;23.25;;
82292;SDS011;71892;14.836;105.234;2024-03-07T10:40:22;37.15;;;23.95;;
82292;SDS011;71892;14.836;105.234;2024-03-07T10:42:50;38.33;;;23.25;;
82292;SDS011;71892;14.836;105.234;2024-03-07T10:45:22;35.80;;;22.17;;
82292;SDS011;71892;14.836;105.234;2024-03-07T10:47:56;37.58;;;23.63;;
82292;SDS011;71892;14.836;105.234;2024-03-07T10:53:17;39.95;;;24.92;;
82292;SDS011;71892;14.836;105.234;2024-03-07T11:01:00;39.78;;;25.50;;
82292;SDS011;71892;14.836;105.234;2024-03-07T11:03:37;47.30;;;26.63;;
82292;SDS011;71892;14.836;105.234;2024-03-07T11:06:07;41.95;;;27.92;;
82292;SDS011;71892;14.836;105.234;2024-03-07T11:08:37;44.33;;;27.52;;
82292;SDS011;71892;14.836;105.234;2024-03-07T11:11:04;41.60;;;27.27;;
82292;SDS011;71892;14.836;105.234;2024-03-07T11:13:32;44.42;;;29.17;;
82292;SDS011;71892;14.836;105.234;2024-03-07T11:15:59;38.08;;;27.27;;
82292;SDS011;71892;14.836;105.234;2024-03-07T11:18:29;42.50;;;28.23;;
82292;SDS011;71892;14.836;105.234;2024-03-07T11:20:55;41.58;;;29.20;;
82292;SDS011;71892;14.836;105.234;2024-03-07T11:23:32;47.30;;;30.27;;
82292;SDS011;71892;14.836;105.234;2024-03-07T11:26:10;49.40;;;32.88;;
82292;SDS011;71892;14.836;105.234;2024-03-07T11:28:42;48.55;;;31.48;;
82292;SDS011;71892;14.836;105.234;2024-03-07T11:31:09;51.50;;;32.58;;
82292;SDS011;71892;14.836;105.234;2024-03-07T11:34:14;35.85;;;25.98;;
82292;SDS011;71892;14.836;105.234;2024-03-07T11:36:46;46.88;;;25.20;;
82292;SDS011;71892;14.836;105.234;2024-03-07T11:42:09;54.78;;;28.80;;
82292;SDS011;71892;14.836;105.234;2024-03-07T11:44:47;37.33;;;26.45;;
82292;SDS011;71892;14.836;105.234;2024-03-07T11:47:15;35.35;;;25.42;;
82292;SDS011;71892;14.836;105.234;2024-03-07T11:49:43;40.00;;;25.48;;
82292;SDS011;71892;14.836;105.234;2024-03-07T11:52:17;41.22;;;26.02;;
82292;SDS011;71892;14.836;105.234;2024-03-07T11:54:44;47.45;;;27.52;;
82292;SDS011;71892;14.836;105.234;2024-03-07T11:57:17;37.40;;;26.02;;
82292;SDS011;71892;14.836;105.234;2024-03-07T12:00:03;40.55;;;28.10;;
82292;SDS011;71892;14.836;105.234;2024-03-07T12:02:39;38.50;;;26.77;;
82292;SDS011;71892;14.836;105.234;2024-03-07T12:05:06;38.58;;;27.88;;
82292;SDS011;71892;14.836;105.234;2024-03-07T12:07:33;37.05;;;27.23;;
82292;SDS011;71892;14.836;105.234;2024-03-07T12:10:02;35.30;;;27.60;;
82292;SDS011;71892;14.836;105.234;2024-03-07T12:12:30;44.25;;;27.48;;
82292;SDS011;71892;14.836;105.234;2024-03-07T12:14:58;35.67;;;27.25;;
82292;SDS011;71892;14.836;105.234;2024-03-07T12:17:25;42.47;;;28.60;;
82292;SDS011;71892;14.836;105.234;2024-03-07T12:19:55;42.97;;;28.63;;
82292;SDS011;71892;14.836;105.234;2024-03-07T12:22:26;40.80;;;28.67;;
82292;SDS011;71892;14.836;105.234;2024-03-07T12:25:01;43.75;;;28.65;;
82292;SDS011;71892;14.836;105.234;2024-03-07T12:27:33;39.33;;;30.02;;
82292;SDS011;71892;14.836;105.234;2024-03-07T12:30:00;42.75;;;28.02;;
82292;SDS011;71892;14.836;105.234;2024-03-07T12:32:33;38.33;;;27.70;;
82292;SDS011;71892;14.836;105.234;2024-03-07T12:34:59;40.92;;;29.40;;
82292;SDS011;71892;14.836;105.234;2024-03-07T12:37:28;42.47;;;28.75;;
82292;SDS011;71892;14.836;105.234;2024-03-07T12:40:10;40.97;;;28.40;;
82292;SDS011;71892;14.836;105.234;2024-03-07T12:42:52;44.63;;;29.25;;
82292;SDS011;71892;14.836;105.234;2024-03-07T12:45:19;60.05;;;31.67;;
82292;SDS011;71892;14.836;105.234;2024-03-07T12:47:51;45.85;;;29.98;;
82292;SDS011;71892;14.836;105.234;2024-03-07T12:50:20;45.03;;;28.05;;
82292;SDS011;71892;14.836;105.234;2024-03-07T12:52:47;50.30;;;30.15;;
82292;SDS011;71892;14.836;105.234;2024-03-07T12:55:17;48.08;;;33.13;;
82292;SDS011;71892;14.836;105.234;2024-03-07T12:57:45;56.20;;;34.40;;
82292;SDS011;71892;14.836;105.234;2024-03-07T13:00:15;50.60;;;34.70;;
82292;SDS011;71892;14.836;105.234;2024-03-07T13:02:48;54.22;;;35.05;;
82292;SDS011;71892;14.836;105.234;2024-03-07T13:05:15;54.92;;;35.83;;
82292;SDS011;71892;14.836;105.234;2024-03-07T13:07:47;55.97;;;34.75;;
82292;SDS011;71892;14.836;105.234;2024-03-07T13:10:16;47.28;;;35.30;;
82292;SDS011;71892;14.836;105.234;2024-03-07T13:12:49;51.45;;;34.55;;
82292;SDS011;71892;14.836;105.234;2024-03-07T13:15:17;53.47;;;35.90;;
82292;SDS011;71892;14.836;105.234;2024-03-07T13:17:47;56.60;;;34.70;;
82292;SDS011;71892;14.836;105.234;2024-03-07T13:20:17;47.35;;;33.17;;
82292;SDS011;71892;14.836;105.234;2024-03-07T13:22:47;50.72;;;32.05;;
82292;SDS011;71892;14.836;105.234;2024-03-07T13:25:17;56.55;;;33.17;;
82292;SDS011;71892;14.836;105.234;2024-03-07T13:28:29;52.97;;;33.97;;
82292;SDS011;71892;14.836;105.234;2024-03-07T13:30:49;50.30;;;32.70;;
82292;SDS011;71892;14.836;105.234;2024-03-07T13:33:19;55.20;;;33.72;;
82292;SDS011;71892;14.836;105.234;2024-03-07T13:35:46;57.22;;;32.67;;
82292;SDS011;71892;14.836;105.234;2024-03-07T13:38:13;59.03;;;32.67;;
82292;SDS011;71892;14.836;105.234;2024-03-07T13:40:40;51.95;;;36.10;;
82292;SDS011;71892;14.836;105.234;2024-03-07T13:43:07;57.13;;;32.63;;
82292;SDS011;71892;14.836;105.234;2024-03-07T13:45:34;58.83;;;33.30;;
82292;SDS011;71892;14.836;105.234;2024-03-07T13:48:06;46.63;;;30.35;;
82292;SDS011;71892;14.836;105.234;2024-03-07T13:50:35;53.28;;;35.92;;
82292;SDS011;71892;14.836;105.234;2024-03-07T13:53:11;50.45;;;34.88;;
82292;SDS011;71892;14.836;105.234;2024-03-07T14:32:01;60.47;;;35.33;;
82292;SDS011;71892;14.836;105.234;2024-03-07T14:37:33;54.30;;;37.00;;
82292;SDS011;71892;14.836;105.234;2024-03-07T14:40:32;54.58;;;35.40;;
82292;SDS011;71892;14.836;105.234;2024-03-07T14:42:53;49.22;;;34.80;;
82292;SDS011;71892;14.836;105.234;2024-03-07T14:45:31;56.13;;;36.15;;
82292;SDS011;71892;14.836;105.234;2024-03-07T14:48:03;56.55;;;36.92;;
82292;SDS011;71892;14.836;105.234;2024-03-07T14:50:32;54.05;;;34.80;;
82292;SDS011;71892;14.836;105.234;2024-03-07T14:52:59;60.53;;;36.78;;
82292;SDS011;71892;14.836;105.234;2024-03-07T14:55:25;59.45;;;35.30;;
82292;SDS011;71892;14.836;105.234;2024-03-07T14:57:52;53.10;;;36.33;;
82292;SDS011;71892;14.836;105.234;2024-03-07T15:00:18;56.90;;;38.22;;
82292;SDS011;71892;14.836;105.234;2024-03-07T15:02:46;58.58;;;36.45;;
82292;SDS011;71892;14.836;105.234;2024-03-07T15:05:13;53.45;;;37.67;;
82292;SDS011;71892;14.836;105.234;2024-03-07T15:07:47;52.38;;;36.50;;